createdAt,value
2023-02-16T00:01:21.031Z,101069.55
2023-02-16T00:03:55.769Z,101064.57
2023-02-16T00:06:27.853Z,101067.29
2023-02-16T00:09:04.337Z,101069.46
2023-02-16T00:11:55.595Z,101071.52
2023-02-16T00:14:28.943Z,101068.49
2023-02-16T00:17:02.613Z,101064.34
2023-02-16T00:19:36.435Z,101065.14
2023-02-16T00:22:09.387Z,101056.84
2023-02-16T00:24:42.806Z,101056.52
2023-02-16T00:27:18.929Z,101052.61
2023-02-16T00:29:51.637Z,101050.25
2023-02-16T00:32:28.973Z,101041.20
2023-02-16T00:35:02.906Z,101039.31
2023-02-16T00:37:38.443Z,101040.04
2023-02-16T00:40:16.136Z,101038.90
2023-02-16T00:42:57.286Z,101037.97
2023-02-16T00:45:30.359Z,101023.34
2023-02-16T00:48:02.910Z,101027.14
2023-02-16T00:50:37.257Z,101020.95
2023-02-16T00:53:12.004Z,101015.55
2023-02-16T00:55:43.874Z,101009.96
2023-02-16T00:58:25.611Z,101000.00
2023-02-16T01:01:03.488Z,100995.64
2023-02-16T01:03:36.290Z,100992.23
2023-02-16T01:06:25.848Z,100985.19
2023-02-16T01:09:29.790Z,100985.38
2023-02-16T01:12:02.242Z,100985.80
2023-02-16T01:14:35.658Z,100986.20
2023-02-16T01:17:07.900Z,100985.25
2023-02-16T01:19:40.794Z,100981.00
2023-02-16T01:22:12.409Z,100985.42
2023-02-16T01:24:44.487Z,100983.50
2023-02-16T01:27:17.816Z,100985.86
2023-02-16T01:29:50.159Z,100987.64
2023-02-16T01:32:23.085Z,100986.61
2023-02-16T01:34:55.708Z,100985.45
2023-02-16T01:37:27.833Z,100982.27
2023-02-16T01:40:04.510Z,100979.85
2023-02-16T01:42:43.085Z,100977.78
2023-02-16T01:45:26.825Z,100967.87
2023-02-16T01:48:03.461Z,100960.94
2023-02-16T01:50:45.251Z,100959.81
2023-02-16T01:53:30.976Z,100962.79
2023-02-16T01:56:18.604Z,100964.32
2023-02-16T01:58:56.839Z,100959.66
2023-02-16T02:01:54.367Z,100959.52
2023-02-16T02:04:49.653Z,100961.16
2023-02-16T02:07:28.847Z,100963.04
2023-02-16T02:10:11.200Z,100958.97
2023-02-16T02:12:50.180Z,100955.88
2023-02-16T02:15:31.328Z,100952.98
2023-02-16T02:18:04.470Z,100945.39
2023-02-16T02:21:08.120Z,100948.02
2023-02-16T02:24:08.150Z,100942.64
2023-02-16T02:27:09.881Z,100942.36
2023-02-16T02:30:22.043Z,100936.17
2023-02-16T02:33:23.378Z,100919.34
2023-02-16T02:36:04.309Z,100913.80
2023-02-16T02:38:47.145Z,100911.90
2023-02-16T02:41:52.949Z,100917.52
2023-02-16T02:44:28.778Z,100904.75
2023-02-16T02:47:04.418Z,100910.48
2023-02-16T02:49:38.853Z,100906.92
2023-02-16T02:52:13.046Z,100900.29
2023-02-16T02:55:03.503Z,100903.83
2023-02-16T02:57:58.299Z,100904.80
2023-02-16T03:00:45.311Z,100895.84
2023-02-16T03:03:28.178Z,100894.39
2023-02-16T03:06:10.306Z,100886.70
2023-02-16T03:08:48.416Z,100880.93
2023-02-16T03:11:48.270Z,100890.98
2023-02-16T03:14:27.970Z,100888.28
2023-02-16T03:17:21.270Z,100887.35
2023-02-16T03:20:19.886Z,100883.84
2023-02-16T03:23:12.813Z,100881.84
2023-02-16T03:26:04.701Z,100881.28
2023-02-16T03:28:57.355Z,100880.55
2023-02-16T03:31:44.762Z,100869.56
2023-02-16T03:34:20.908Z,100863.52
2023-02-16T03:36:59.056Z,100860.38
2023-02-16T03:39:56.537Z,100854.92
2023-02-16T03:42:29.619Z,100849.67
2023-02-16T03:45:05.380Z,100850.61
2023-02-16T03:47:41.184Z,100843.85
2023-02-16T03:50:15.370Z,100846.80
2023-02-16T03:52:48.770Z,100843.18
2023-02-16T03:55:24.013Z,100851.04
2023-02-16T03:57:56.298Z,100851.60
2023-02-16T04:00:29.299Z,100851.64
2023-02-16T04:03:05.676Z,100851.52
2023-02-16T04:05:39.769Z,100852.20
2023-02-16T04:08:13.752Z,100852.42
2023-02-16T04:10:48.972Z,100851.50
2023-02-16T04:13:22.074Z,100845.17
2023-02-16T04:16:00.781Z,100851.60
2023-02-16T04:18:34.653Z,100845.45
2023-02-16T04:21:12.348Z,100843.92
2023-02-16T04:23:44.552Z,100840.17
2023-02-16T04:34:06.593Z,100821.29
2023-02-16T04:36:39.542Z,100830.73
2023-02-16T04:39:11.825Z,100835.70
2023-02-16T04:41:43.499Z,100834.92
2023-02-16T04:44:15.612Z,100834.02
2023-02-16T04:46:47.713Z,100832.55
2023-02-16T04:49:20.491Z,100831.32
2023-02-16T04:51:53.796Z,100831.08
2023-02-16T04:54:25.777Z,100827.73
2023-02-16T04:56:57.682Z,100826.29
2023-02-16T04:59:29.786Z,100828.79
2023-02-16T05:02:02.603Z,100832.44
2023-02-16T05:04:34.898Z,100824.39
2023-02-16T05:07:12.410Z,100823.52
2023-02-16T05:09:47.280Z,100822.02
2023-02-16T05:12:37.228Z,100823.59
2023-02-16T05:15:10.812Z,100823.33
2023-02-16T05:17:42.804Z,100816.91
2023-02-16T05:20:16.099Z,100816.85
2023-02-16T05:22:47.894Z,100818.25
2023-02-16T05:25:20.338Z,100820.03
2023-02-16T05:27:52.287Z,100823.02
2023-02-16T05:30:24.465Z,100818.27
2023-02-16T05:32:59.945Z,100821.66
2023-02-16T05:35:31.936Z,100821.11
2023-02-16T05:38:03.707Z,100824.05
2023-02-16T05:40:36.991Z,100829.31
2023-02-16T05:43:09.025Z,100837.25
2023-02-16T05:45:41.939Z,100831.45
2023-02-16T05:48:13.851Z,100838.80
2023-02-16T05:50:45.828Z,100843.06
2023-02-16T05:53:18.309Z,100834.17
2023-02-16T05:55:52.442Z,100839.81
2023-02-16T05:58:24.730Z,100835.86
2023-02-16T06:00:56.511Z,100836.24
2023-02-16T06:03:28.389Z,100837.88
2023-02-16T06:06:01.943Z,100838.04
2023-02-16T06:08:34.401Z,100831.09
2023-02-16T06:11:27.782Z,100826.05
2023-02-16T06:13:59.821Z,100830.59
2023-02-16T06:16:32.839Z,100834.27
2023-02-16T06:19:05.560Z,100832.90
2023-02-16T06:21:37.692Z,100837.89
2023-02-16T06:24:11.151Z,100841.70
2023-02-16T06:26:43.471Z,100835.42
2023-02-16T06:29:15.645Z,100828.23
2023-02-16T06:31:47.562Z,100827.14
2023-02-16T06:34:19.535Z,100821.58
2023-02-16T06:36:51.719Z,100819.10
2023-02-16T06:39:23.704Z,100822.67
2023-02-16T06:41:55.983Z,100823.16
2023-02-16T06:44:31.003Z,100825.83
2023-02-16T06:47:02.897Z,100825.50
2023-02-16T06:49:35.020Z,100823.67
2023-02-16T06:52:07.649Z,100818.81
2023-02-16T06:54:39.514Z,100816.69
2023-02-16T06:57:11.683Z,100812.58
2023-02-16T06:59:43.485Z,100819.76
2023-02-16T07:02:15.736Z,100816.52
2023-02-16T07:04:47.478Z,100815.18
2023-02-16T07:07:19.092Z,100819.69
2023-02-16T07:09:50.964Z,100818.14
2023-02-16T07:12:25.150Z,100815.72
2023-02-16T07:14:56.855Z,100808.09
2023-02-16T07:17:28.684Z,100817.30
2023-02-16T07:20:00.734Z,100819.74
2023-02-16T07:22:32.342Z,100816.77
2023-02-16T07:25:04.809Z,100818.90
2023-02-16T07:27:36.751Z,100816.87
2023-02-16T07:30:11.391Z,100813.72
2023-02-16T07:32:43.079Z,100810.61
2023-02-16T07:35:16.187Z,100813.52
2023-02-16T07:37:48.068Z,100808.40
2023-02-16T07:40:20.006Z,100802.55
2023-02-16T07:42:51.753Z,100796.23
2023-02-16T07:45:23.627Z,100792.77
2023-02-16T07:47:55.393Z,100791.92
2023-02-16T07:50:27.878Z,100795.41
2023-02-16T07:52:59.643Z,100797.98
2023-02-16T07:55:33.660Z,100801.41
2023-02-16T07:58:05.898Z,100803.93
2023-02-16T08:00:37.929Z,100804.34
2023-02-16T08:03:11.164Z,100804.64
2023-02-16T08:05:43.237Z,100809.54
2023-02-16T08:08:15.077Z,100799.02
2023-02-16T08:10:47.531Z,100798.83
2023-02-16T08:13:19.512Z,100793.67
2023-02-16T08:15:51.308Z,100796.30
2023-02-16T08:18:23.212Z,100796.84
2023-02-16T08:21:03.750Z,100802.55
2023-02-16T08:23:36.044Z,100799.83
2023-02-16T08:26:13.219Z,100800.84
2023-02-16T08:28:46.397Z,100798.40
2023-02-16T08:31:21.502Z,100795.90
2023-02-16T08:33:54.104Z,100792.27
2023-02-16T08:36:29.812Z,100788.77
2023-02-16T08:39:02.579Z,100791.47
2023-02-16T08:41:35.664Z,100791.57
2023-02-16T08:44:08.689Z,100792.92
2023-02-16T08:46:43.143Z,100789.16
2023-02-16T08:49:17.411Z,100787.34
2023-02-16T08:51:51.173Z,100782.20
2023-02-16T08:54:25.820Z,100789.27
2023-02-16T08:56:59.289Z,100788.84
2023-02-16T08:59:31.945Z,100794.31
2023-02-16T09:02:04.188Z,100793.36
2023-02-16T09:04:37.180Z,100786.69
2023-02-16T09:07:09.203Z,100786.45
2023-02-16T09:09:42.684Z,100785.96
2023-02-16T09:12:14.694Z,100788.73
2023-02-16T09:14:49.331Z,100789.92
2023-02-16T09:17:21.479Z,100790.20
2023-02-16T09:19:53.285Z,100790.83
2023-02-16T09:22:25.449Z,100787.16
2023-02-16T09:25:00.298Z,100784.17
2023-02-16T09:27:33.074Z,100786.10
2023-02-16T09:30:07.224Z,100785.57
2023-02-16T09:32:39.462Z,100786.49
2023-02-16T09:35:12.416Z,100785.17
2023-02-16T09:37:44.072Z,100777.80
2023-02-16T09:40:16.830Z,100773.27
2023-02-16T09:42:58.701Z,100777.39
2023-02-16T09:45:35.607Z,100774.88
2023-02-16T09:48:12.163Z,100776.03
2023-02-16T09:50:54.940Z,100774.13
2023-02-16T09:53:35.879Z,100771.89
2023-02-16T09:56:21.793Z,100778.66
2023-02-16T09:59:03.859Z,100776.19
2023-02-16T10:01:43.978Z,100775.98
2023-02-16T10:04:39.340Z,100771.39
2023-02-16T10:07:25.443Z,100769.59
2023-02-16T10:09:59.105Z,100765.02
2023-02-16T10:12:39.778Z,100756.35
2023-02-16T10:15:20.817Z,100751.86
2023-02-16T10:18:00.409Z,100745.45
2023-02-16T10:20:36.040Z,100744.27
2023-02-16T10:23:16.178Z,100747.39
2023-02-16T10:25:55.940Z,100740.30
2023-02-16T10:28:43.422Z,100734.83
2023-02-16T10:31:21.256Z,100731.05
2023-02-16T10:34:18.262Z,100731.92
2023-02-16T10:37:06.426Z,100729.73
2023-02-16T10:39:47.412Z,100725.25
2023-02-16T10:42:27.039Z,100724.82
2023-02-16T10:45:08.528Z,100721.65
2023-02-16T10:47:42.836Z,100724.42
2023-02-16T10:50:28.426Z,100723.11
2023-02-16T10:53:03.529Z,100718.84
2023-02-16T10:55:36.850Z,100716.85
2023-02-16T10:58:17.463Z,100721.60
2023-02-16T11:00:58.186Z,100719.44
2023-02-16T11:03:37.843Z,100721.11
2023-02-16T11:06:19.534Z,100716.50
2023-02-16T11:08:57.612Z,100719.80
2023-02-16T11:11:30.910Z,100718.77
2023-02-16T11:14:06.400Z,100714.30
2023-02-16T11:16:39.948Z,100713.10
2023-02-16T11:19:20.569Z,100712.76
2023-02-16T11:21:56.352Z,100713.08
2023-02-16T11:24:34.368Z,100710.98
2023-02-16T11:27:16.723Z,100707.65
2023-02-16T11:29:49.359Z,100705.67
2023-02-16T11:32:23.100Z,100703.88
2023-02-16T11:34:55.714Z,100704.66
2023-02-16T11:37:31.429Z,100707.29
2023-02-16T11:40:05.647Z,100703.20
2023-02-16T11:42:44.190Z,100707.03
2023-02-16T11:45:31.003Z,100701.77
2023-02-16T11:48:07.728Z,100701.20
2023-02-16T11:50:57.534Z,100701.73
2023-02-16T11:53:31.772Z,100698.02
2023-02-16T11:56:24.608Z,100699.85
2023-02-16T11:59:19.435Z,100695.80
2023-02-16T12:02:19.328Z,100695.38
2023-02-16T12:05:04.131Z,100688.83
2023-02-16T12:07:43.737Z,100683.06
2023-02-16T12:10:20.682Z,100688.60
2023-02-16T12:13:03.584Z,100690.34
2023-02-16T12:15:45.289Z,100689.59
2023-02-16T12:18:38.282Z,100683.55
2023-02-16T12:21:23.140Z,100687.16
2023-02-16T12:24:09.463Z,100679.56
2023-02-16T12:26:54.252Z,100686.27
2023-02-16T12:29:39.631Z,100685.32
2023-02-16T12:32:32.168Z,100682.84
2023-02-16T12:35:30.228Z,100675.67
2023-02-16T12:38:13.898Z,100677.94
2023-02-16T12:40:54.394Z,100670.70
2023-02-16T12:43:40.392Z,100668.30
2023-02-16T12:46:23.615Z,100672.70
2023-02-16T12:49:01.666Z,100669.97
2023-02-16T12:51:39.202Z,100667.70
2023-02-16T12:54:19.497Z,100663.80
2023-02-16T12:56:56.592Z,100660.94
2023-02-16T12:59:37.982Z,100667.98
2023-02-16T13:02:17.244Z,100664.70
2023-02-16T13:04:52.632Z,100662.92
2023-02-16T13:07:32.908Z,100659.97
2023-02-16T13:10:17.094Z,100657.77
2023-02-16T13:12:52.578Z,100654.48
2023-02-16T13:15:28.954Z,100653.02
2023-02-16T13:18:07.723Z,100655.63
2023-02-16T13:20:46.345Z,100650.23
2023-02-16T13:23:39.393Z,100650.60
2023-02-16T13:26:36.660Z,100652.65
2023-02-16T13:29:39.507Z,100650.52
2023-02-16T13:32:38.345Z,100651.30
2023-02-16T13:35:34.700Z,100649.32
2023-02-16T13:38:21.161Z,100651.11
2023-02-16T13:41:19.099Z,100647.59
2023-02-16T13:43:54.603Z,100647.61
2023-02-16T13:46:35.840Z,100647.73
2023-02-16T13:49:09.312Z,100645.16
2023-02-16T13:51:48.128Z,100647.42
2023-02-16T13:54:34.342Z,100648.15
2023-02-16T13:57:15.617Z,100650.20
2023-02-16T14:00:01.617Z,100641.55
2023-02-16T14:02:58.969Z,100637.52
2023-02-16T14:05:41.027Z,100645.39
2023-02-16T14:08:23.251Z,100644.23
2023-02-16T14:11:17.254Z,100645.42
2023-02-16T14:13:53.138Z,100648.39
2023-02-16T14:16:35.921Z,100642.59
2023-02-16T14:19:19.585Z,100642.31
2023-02-16T14:21:54.059Z,100645.02
2023-02-16T14:24:34.409Z,100637.45
2023-02-16T14:27:07.877Z,100639.90
2023-02-16T14:29:43.019Z,100638.73
2023-02-16T14:32:30.710Z,100641.09
2023-02-16T14:35:15.566Z,100642.38
2023-02-16T14:37:57.559Z,100644.95
2023-02-16T14:40:47.197Z,100644.08
2023-02-16T14:43:28.505Z,100642.81
2023-02-16T14:46:43.879Z,100643.83
2023-02-16T14:49:48.454Z,100645.61
2023-02-16T14:52:46.301Z,100642.13
2023-02-16T14:55:56.453Z,100638.65
2023-02-16T14:58:37.872Z,100637.59
2023-02-16T15:01:16.742Z,100634.27
2023-02-16T15:03:52.946Z,100635.86
2023-02-16T15:06:31.672Z,100634.52
2023-02-16T15:09:08.311Z,100633.52
2023-02-16T15:11:58.811Z,100626.92
2023-02-16T15:14:33.996Z,100632.54
2023-02-16T15:17:10.745Z,100630.29
2023-02-16T15:19:48.647Z,100629.83
2023-02-16T15:22:26.436Z,100620.09
2023-02-16T15:25:03.884Z,100631.75
2023-02-16T15:27:35.757Z,100622.80
2023-02-16T15:30:23.358Z,100620.49
2023-02-16T15:32:59.661Z,100616.49
2023-02-16T15:35:52.409Z,100609.00
2023-02-16T15:38:30.434Z,100607.77
2023-02-16T15:41:30.660Z,100613.73
2023-02-16T15:44:04.434Z,100618.10
2023-02-16T15:46:52.734Z,100617.48
2023-02-16T15:49:33.015Z,100607.59
2023-02-16T15:52:12.814Z,100610.60
2023-02-16T15:54:50.936Z,100604.36
2023-02-16T15:57:52.456Z,100603.67
2023-02-16T16:00:32.906Z,100600.34
2023-02-16T16:03:06.250Z,100598.60
2023-02-16T16:05:41.185Z,100602.10
2023-02-16T16:08:21.081Z,100603.20
2023-02-16T16:10:53.593Z,100598.48
2023-02-16T16:13:29.808Z,100605.56
2023-02-16T16:16:07.668Z,100599.20
2023-02-16T16:18:46.560Z,100599.94
2023-02-16T16:21:24.643Z,100599.64
2023-02-16T16:24:07.492Z,100599.02
2023-02-16T16:26:55.969Z,100601.55
2023-02-16T16:29:38.609Z,100599.67
2023-02-16T16:32:26.318Z,100597.28
2023-02-16T16:34:58.779Z,100600.89
2023-02-16T16:37:33.565Z,100596.04
2023-02-16T16:40:06.841Z,100600.42
2023-02-16T16:42:41.904Z,100594.13
2023-02-16T16:45:39.012Z,100594.75
2023-02-16T16:48:25.797Z,100600.56
2023-02-16T16:51:14.004Z,100600.58
2023-02-16T16:54:07.285Z,100603.66
2023-02-16T16:56:43.885Z,100597.37
2023-02-16T16:59:18.926Z,100596.39
2023-02-16T17:01:54.098Z,100598.83
2023-02-16T17:04:29.149Z,100599.67
2023-02-16T17:07:02.638Z,100601.45
2023-02-16T17:09:39.790Z,100596.53
2023-02-16T17:12:15.915Z,100598.21
2023-02-16T17:14:48.631Z,100598.02
2023-02-16T17:17:26.872Z,100602.84
2023-02-16T17:20:01.597Z,100597.52
2023-02-16T17:23:02.264Z,100599.91
2023-02-16T17:25:51.802Z,100592.40
2023-02-16T17:28:31.456Z,100597.44
2023-02-16T17:31:06.479Z,100595.69
2023-02-16T17:33:41.435Z,100599.33
2023-02-16T17:36:20.140Z,100593.79
2023-02-16T17:38:54.975Z,100595.62
2023-02-16T17:41:30.017Z,100594.66
2023-02-16T17:44:17.813Z,100598.26
2023-02-16T17:46:55.189Z,100590.64
2023-02-16T17:49:48.011Z,100597.07
2023-02-16T17:52:30.398Z,100591.90
2023-02-16T17:55:14.302Z,100592.05
2023-02-16T17:58:04.982Z,100591.89
2023-02-16T18:00:55.390Z,100594.20
2023-02-16T18:03:33.541Z,100593.48
2023-02-16T18:06:18.735Z,100600.27
2023-02-16T18:08:58.850Z,100598.10
2023-02-16T18:11:33.493Z,100597.91
2023-02-16T18:14:13.357Z,100601.67
2023-02-16T18:16:53.984Z,100605.38
2023-02-16T18:19:32.047Z,100601.29
2023-02-16T18:22:08.764Z,100603.58
2023-02-16T18:24:48.030Z,100598.30
2023-02-16T18:27:29.371Z,100602.05
2023-02-16T18:30:15.481Z,100605.75
2023-02-16T18:33:17.588Z,100601.11
2023-02-16T18:36:10.783Z,100609.09
2023-02-16T18:38:45.673Z,100611.05
2023-02-16T18:41:22.576Z,100616.20
2023-02-16T18:44:05.940Z,100612.14
2023-02-16T18:46:44.009Z,100613.33
2023-02-16T18:49:20.940Z,100610.17
2023-02-16T18:51:59.138Z,100607.52
2023-02-16T18:54:37.417Z,100610.39
2023-02-16T18:57:18.191Z,100609.73
2023-02-16T18:59:54.803Z,100609.36
2023-02-16T19:02:33.530Z,100607.14
2023-02-16T19:05:13.559Z,100602.23
2023-02-16T19:08:01.903Z,100605.34
2023-02-16T19:10:51.602Z,100605.27
2023-02-16T19:13:30.516Z,100610.39
2023-02-16T19:16:20.222Z,100616.92
2023-02-16T19:18:57.386Z,100611.61
2023-02-16T19:21:34.663Z,100603.22
2023-02-16T19:24:12.271Z,100606.73
2023-02-16T19:27:02.315Z,100606.35
2023-02-16T19:29:38.043Z,100595.77
2023-02-16T19:32:18.057Z,100597.71
2023-02-16T19:35:11.493Z,100592.64
2023-02-16T19:37:55.161Z,100590.26
2023-02-16T19:40:30.674Z,100593.08
2023-02-16T19:43:17.730Z,100584.86
2023-02-16T19:46:28.011Z,100596.04
2023-02-16T19:49:05.471Z,100589.05
2023-02-16T19:51:40.620Z,100591.84
2023-02-16T19:54:21.135Z,100592.58
2023-02-16T19:56:55.243Z,100589.45
2023-02-16T19:59:35.601Z,100590.41
2023-02-16T20:02:12.411Z,100584.93
2023-02-16T20:04:51.640Z,100588.79
2023-02-16T20:07:31.195Z,100571.63
2023-02-16T20:10:04.726Z,100576.61
2023-02-16T20:12:47.804Z,100582.87
2023-02-16T20:15:26.506Z,100580.98
2023-02-16T20:18:05.254Z,100572.34
2023-02-16T20:20:44.196Z,100571.09
2023-02-16T20:23:22.728Z,100573.41
2023-02-16T20:25:58.348Z,100574.05
2023-02-16T20:28:34.910Z,100572.52
2023-02-16T20:31:20.548Z,100576.89
2023-02-16T20:34:12.379Z,100572.27
2023-02-16T20:37:05.132Z,100566.63
2023-02-16T20:39:45.762Z,100568.46
2023-02-16T20:45:10.710Z,100567.79
2023-02-16T20:47:47.868Z,100567.03
2023-02-16T20:54:05.579Z,100561.80
2023-02-16T21:00:22.625Z,100569.34
2023-02-16T21:02:54.856Z,100572.85
2023-02-16T21:05:46.095Z,100571.00
2023-02-16T21:08:19.609Z,100566.19
2023-02-16T21:11:01.697Z,100559.91
2023-02-16T21:13:42.491Z,100564.58
2023-02-16T21:16:21.414Z,100562.91
2023-02-16T21:19:00.547Z,100554.52
2023-02-16T21:21:43.722Z,100556.49
2023-02-16T21:24:23.944Z,100549.35
2023-02-16T21:27:04.946Z,100553.65
2023-02-16T21:29:42.091Z,100546.86
2023-02-16T21:32:14.303Z,100553.64
2023-02-16T21:34:46.609Z,100554.73
2023-02-16T21:37:19.194Z,100556.80
2023-02-16T21:40:09.094Z,100555.42
2023-02-16T21:42:41.911Z,100560.35
2023-02-16T21:45:17.904Z,100558.40
2023-02-16T21:48:07.390Z,100555.92
2023-02-16T21:50:41.910Z,100561.17
2023-02-16T21:53:14.497Z,100560.95
2023-02-16T21:56:07.226Z,100560.29
2023-02-16T21:58:39.653Z,100559.31
2023-02-16T22:01:11.441Z,100560.02
2023-02-16T22:03:43.009Z,100557.52
2023-02-16T22:06:14.913Z,100557.81
2023-02-16T22:08:47.066Z,100554.35
2023-02-16T22:11:19.133Z,100553.19
2023-02-16T22:13:54.587Z,100552.10
2023-02-16T22:16:27.323Z,100542.20
2023-02-16T22:19:01.361Z,100547.50
2023-02-16T22:21:33.536Z,100552.21
2023-02-16T22:24:06.212Z,100553.27
2023-02-16T22:26:38.957Z,100554.17
2023-02-16T22:29:11.570Z,100554.41
2023-02-16T22:31:47.732Z,100560.05
2023-02-16T22:34:22.177Z,100558.70
2023-02-16T22:36:54.975Z,100555.06
2023-02-16T22:39:27.285Z,100555.72
2023-02-16T22:41:58.889Z,100552.10
2023-02-16T22:44:30.574Z,100554.98
2023-02-16T22:47:03.004Z,100554.23
2023-02-16T22:49:35.345Z,100549.71
2023-02-16T22:52:07.186Z,100548.14
2023-02-16T22:54:38.970Z,100551.34
2023-02-16T22:57:10.780Z,100552.63
2023-02-16T22:59:43.857Z,100554.32
2023-02-16T23:02:16.095Z,100555.36
2023-02-16T23:04:47.714Z,100553.64
2023-02-16T23:07:19.398Z,100555.02
2023-02-16T23:09:50.962Z,100553.01
2023-02-16T23:12:22.690Z,100548.66
2023-02-16T23:14:54.473Z,100547.45
2023-02-16T23:17:26.199Z,100546.22
2023-02-16T23:19:57.733Z,100545.10
2023-02-16T23:22:30.548Z,100547.03
2023-02-16T23:25:19.325Z,100539.59
2023-02-16T23:27:53.264Z,100535.07
2023-02-16T23:30:25.091Z,100540.70
2023-02-16T23:32:56.726Z,100539.22
2023-02-16T23:35:28.327Z,100537.49
2023-02-16T23:38:01.735Z,100534.42
2023-02-16T23:40:33.312Z,100537.16
2023-02-16T23:43:05.053Z,100534.15
2023-02-16T23:45:37.005Z,100531.98
2023-02-16T23:48:09.251Z,100530.11
2023-02-16T23:50:40.924Z,100531.78
2023-02-16T23:53:12.594Z,100530.70
2023-02-16T23:55:44.372Z,100524.60
2023-02-16T23:58:16.047Z,100524.98
